createdAt,value
2023-03-06T00:00:21.069Z,24.06
2023-03-06T00:01:21.093Z,24.02
2023-03-06T00:02:21.051Z,24.06
2023-03-06T00:03:21.089Z,24.02
2023-03-06T00:04:21.001Z,24.01
2023-03-06T00:05:21.002Z,24.02
2023-03-06T00:06:20.976Z,24.06
2023-03-06T00:07:20.944Z,24.06
2023-03-06T00:08:20.921Z,23.97
2023-03-06T00:09:20.904Z,24.02
2023-03-06T00:10:20.913Z,23.99
2023-03-06T00:11:20.883Z,24.01
2023-03-06T00:12:20.845Z,24.05
2023-03-06T00:13:20.852Z,24.00
2023-03-06T00:14:20.856Z,23.99
2023-03-06T00:15:20.777Z,24.05
2023-03-06T00:16:20.796Z,24.01
2023-03-06T00:17:20.741Z,24.01
2023-03-06T00:18:20.726Z,24.01
2023-03-06T00:19:20.709Z,24.03
2023-03-06T00:20:20.690Z,24.02
2023-03-06T00:21:20.685Z,23.97
2023-03-06T00:22:20.660Z,24.03
2023-03-06T00:23:20.633Z,24.01
2023-03-06T00:24:20.617Z,24.02
2023-03-06T00:25:20.597Z,24.06
2023-03-06T00:26:20.596Z,24.03
2023-03-06T00:27:20.551Z,24.02
2023-03-06T00:28:20.562Z,24.03
2023-03-06T00:29:20.522Z,24.02
2023-03-06T00:30:20.496Z,24.03
2023-03-06T00:31:20.519Z,24.03
2023-03-06T00:32:20.489Z,24.02
2023-03-06T00:33:20.498Z,24.03
2023-03-06T00:34:20.434Z,24.02
2023-03-06T00:35:20.465Z,24.02
2023-03-06T00:36:20.396Z,24.03
2023-03-06T00:37:20.366Z,24.05
2023-03-06T00:38:20.360Z,24.03
2023-03-06T00:39:20.364Z,23.98
2023-03-06T00:40:20.338Z,24.02
2023-03-06T00:41:20.299Z,24.06
2023-03-06T00:42:20.265Z,24.06
2023-03-06T00:45:20.227Z,24.02
2023-03-06T01:17:19.603Z,24.01
2023-03-06T01:18:19.589Z,23.98
2023-03-06T01:19:19.567Z,24.03
2023-03-06T01:20:19.541Z,23.98
2023-03-06T01:21:19.534Z,24.01
2023-03-06T01:22:19.507Z,24.01
2023-03-06T01:23:19.522Z,24.02
2023-03-06T01:24:19.477Z,24.03
2023-03-06T01:25:19.463Z,24.01
2023-03-06T01:26:19.444Z,24.01
2023-03-06T01:27:19.412Z,23.98
2023-03-06T01:28:19.379Z,24.03
2023-03-06T01:29:19.381Z,24.02
2023-03-06T01:30:19.345Z,24.06
2023-03-06T01:31:19.352Z,24.04
2023-03-06T01:32:19.351Z,24.00
2023-03-06T01:33:19.310Z,24.02
2023-03-06T01:34:19.250Z,24.01
2023-03-06T01:35:19.263Z,24.01
2023-03-06T01:36:19.259Z,24.04
2023-03-06T01:37:19.189Z,24.01
2023-03-06T01:38:19.157Z,23.97
2023-03-06T01:39:19.161Z,24.01
2023-03-06T01:40:19.125Z,23.98
2023-03-06T01:41:19.104Z,24.02
2023-03-06T01:42:19.081Z,24.01
2023-03-06T01:43:19.068Z,24.07
2023-03-06T01:44:19.036Z,24.02
2023-03-06T01:45:19.035Z,24.01
2023-03-06T01:46:19.009Z,24.07
2023-03-06T01:47:18.985Z,24.01
2023-03-06T01:48:18.950Z,24.02
2023-03-06T01:49:18.930Z,24.01
2023-03-06T01:50:18.906Z,24.01
2023-03-06T01:51:18.891Z,24.03
2023-03-06T01:52:18.845Z,24.02
2023-03-06T01:53:18.823Z,23.98
2023-03-06T01:54:18.795Z,24.02
2023-03-06T01:55:18.779Z,24.04
2023-03-06T01:56:18.804Z,23.98
2023-03-06T01:57:18.757Z,24.00
2023-03-06T01:58:18.724Z,24.04
2023-03-06T01:59:18.698Z,23.97
2023-03-06T02:00:18.678Z,23.98
2023-03-06T02:01:18.676Z,24.01
2023-03-06T02:02:18.659Z,23.97
2023-03-06T02:03:18.655Z,24.00
2023-03-06T02:04:18.571Z,24.00
2023-03-06T02:05:18.605Z,24.00
2023-03-06T02:06:18.524Z,24.01
2023-03-06T02:07:18.542Z,24.02
2023-03-06T02:08:18.509Z,24.01
2023-03-06T02:09:18.474Z,24.01
2023-03-06T02:10:18.444Z,24.00
2023-03-06T02:11:18.458Z,24.02
2023-03-06T02:12:18.395Z,23.98
2023-03-06T02:13:18.384Z,23.98
2023-03-06T02:14:18.358Z,24.00
2023-03-06T02:15:18.324Z,24.03
2023-03-06T02:16:18.402Z,24.00
2023-03-06T02:17:18.318Z,23.97
2023-03-06T02:18:18.276Z,23.98
2023-03-06T02:19:18.278Z,24.00
2023-03-06T02:20:18.235Z,23.98
2023-03-06T02:21:18.213Z,24.01
2023-03-06T02:22:18.182Z,23.97
2023-03-06T02:23:18.164Z,23.95
2023-03-06T02:24:18.131Z,24.02
2023-03-06T02:25:18.122Z,23.95
2023-03-06T02:26:18.103Z,23.95
2023-03-06T02:27:18.085Z,24.02
2023-03-06T02:28:18.059Z,24.01
2023-03-06T02:29:18.028Z,24.01
2023-03-06T02:30:18.004Z,23.98
2023-03-06T02:31:17.996Z,23.97
2023-03-06T02:32:17.993Z,24.01
2023-03-06T02:33:17.924Z,23.98
2023-03-06T02:34:17.896Z,24.02
2023-03-06T02:35:17.867Z,23.98
2023-03-06T02:36:17.829Z,23.98
2023-03-06T02:37:17.828Z,23.97
2023-03-06T02:38:17.780Z,24.01
2023-03-06T02:39:17.792Z,24.02
2023-03-06T02:40:17.798Z,23.98
2023-03-06T02:41:17.736Z,24.00
2023-03-06T02:42:17.714Z,23.95
2023-03-06T02:43:17.676Z,24.04
2023-03-06T02:44:17.695Z,24.01
2023-03-06T02:45:17.646Z,24.00
2023-03-06T02:46:17.658Z,23.99
2023-03-06T02:47:17.633Z,23.98
2023-03-06T02:48:17.604Z,23.96
2023-03-06T02:49:17.602Z,24.04
2023-03-06T02:50:17.563Z,24.01
2023-03-06T02:51:17.557Z,23.98
2023-03-06T02:52:17.523Z,24.00
2023-03-06T02:53:17.478Z,24.01
2023-03-06T02:54:17.504Z,24.01
2023-03-06T02:55:17.455Z,24.02
2023-03-06T02:56:17.439Z,24.00
2023-03-06T02:57:17.417Z,24.04
2023-03-06T02:58:17.386Z,23.98
2023-03-06T02:59:17.379Z,24.00
2023-03-06T03:00:17.363Z,24.01
2023-03-06T03:01:17.347Z,24.01
2023-03-06T03:02:17.323Z,24.04
2023-03-06T03:03:17.284Z,23.98
2023-03-06T03:04:17.311Z,23.99
2023-03-06T03:05:17.254Z,24.02
2023-03-06T03:06:17.248Z,23.96
2023-03-06T03:07:17.234Z,24.01
2023-03-06T03:08:17.201Z,24.00
2023-03-06T03:09:17.219Z,23.92
2023-03-06T03:10:17.124Z,23.97
2023-03-06T03:11:17.096Z,24.00
2023-03-06T03:12:17.159Z,24.06
2023-03-06T03:13:17.067Z,23.95
2023-03-06T03:14:17.036Z,23.97
2023-03-06T03:15:17.029Z,24.00
2023-03-06T03:16:17.027Z,23.96
2023-03-06T03:17:16.965Z,23.97
2023-03-06T03:18:16.927Z,23.98
2023-03-06T03:19:16.903Z,24.00
2023-03-06T03:20:16.873Z,24.00
2023-03-06T03:21:16.847Z,24.02
2023-03-06T03:22:16.841Z,23.96
2023-03-06T03:23:16.812Z,23.94
2023-03-06T03:24:16.857Z,24.00
2023-03-06T03:25:16.792Z,23.99
2023-03-06T03:26:16.760Z,24.00
2023-03-06T03:27:16.741Z,23.96
2023-03-06T03:28:16.754Z,23.96
2023-03-06T03:29:16.685Z,23.96
2023-03-06T03:30:16.679Z,24.01
2023-03-06T03:31:16.680Z,23.96
2023-03-06T03:32:16.641Z,23.99
2023-03-06T03:33:16.623Z,23.95
2023-03-06T03:34:16.559Z,24.00
2023-03-06T03:35:16.558Z,23.99
2023-03-06T03:36:16.531Z,23.95
2023-03-06T03:37:16.497Z,23.98
2023-03-06T03:38:16.490Z,23.96
2023-03-06T03:39:16.458Z,23.98
2023-03-06T03:40:16.466Z,23.99
2023-03-06T03:41:16.430Z,23.95
2023-03-06T03:42:16.396Z,23.95
2023-03-06T03:43:16.378Z,23.98
2023-03-06T03:44:16.335Z,24.01
2023-03-06T03:45:16.338Z,23.95
2023-03-06T03:46:16.365Z,23.95
2023-03-06T03:47:16.300Z,24.00
2023-03-06T03:48:16.274Z,23.96
2023-03-06T03:49:16.247Z,23.95
2023-03-06T03:50:16.215Z,23.96
2023-03-06T03:51:16.178Z,23.95
2023-03-06T03:52:16.171Z,23.98
2023-03-06T03:53:16.142Z,23.98
2023-03-06T03:54:16.109Z,23.98
2023-03-06T03:55:16.090Z,23.96
2023-03-06T04:09:15.787Z,23.98
2023-03-06T04:10:15.760Z,23.98
2023-03-06T04:11:15.762Z,23.95
2023-03-06T04:12:15.724Z,23.95
2023-03-06T04:13:15.694Z,23.95
2023-03-06T04:14:15.728Z,24.01
2023-03-06T04:15:15.661Z,23.99
2023-03-06T04:16:15.805Z,23.98
2023-03-06T04:17:15.623Z,23.90
2023-03-06T04:18:15.596Z,23.96
2023-03-06T04:19:15.605Z,24.02
2023-03-06T04:20:15.567Z,23.93
2023-03-06T04:21:15.548Z,23.95
2023-03-06T04:22:15.533Z,23.96
2023-03-06T04:23:15.514Z,23.96
2023-03-06T04:24:15.493Z,23.93
2023-03-06T04:25:15.487Z,23.95
2023-03-06T04:26:15.440Z,24.01
2023-03-06T04:27:15.432Z,23.98
2023-03-06T04:28:15.403Z,23.95
2023-03-06T04:29:15.373Z,23.92
2023-03-06T04:30:15.346Z,23.99
2023-03-06T06:38:15.765Z,21.96
2023-03-06T07:14:12.400Z,22.94
2023-03-06T07:15:12.469Z,22.93
2023-03-06T07:16:12.357Z,22.83
2023-03-06T07:17:12.348Z,22.87
2023-03-06T07:18:12.452Z,22.79
2023-03-06T07:19:12.285Z,22.79
2023-03-06T07:20:12.276Z,22.76
2023-03-06T07:21:19.350Z,22.58
2023-03-06T07:22:12.237Z,22.60
2023-03-06T07:24:12.226Z,22.44
2023-03-06T07:25:12.225Z,22.47
2023-03-06T07:26:12.208Z,22.51
2023-03-06T07:27:12.200Z,22.52
2023-03-06T07:28:12.261Z,22.48
2023-03-06T07:29:12.462Z,22.24
2023-03-06T07:30:12.164Z,22.24
2023-03-06T07:31:12.193Z,22.16
2023-03-06T07:32:12.212Z,22.10
2023-03-06T07:33:12.114Z,22.02
2023-03-06T07:34:12.106Z,22.02
2023-03-06T07:35:19.682Z,22.10
2023-03-06T07:36:14.025Z,22.04
2023-03-06T07:37:12.079Z,22.00
2023-03-06T07:38:12.111Z,21.88
2023-03-06T07:39:12.046Z,21.77
2023-03-06T07:40:12.072Z,21.75
2023-03-06T07:41:12.010Z,21.78
2023-03-06T07:42:12.003Z,22.42
2023-03-06T07:43:19.093Z,22.31
2023-03-06T07:44:12.971Z,21.62
2023-03-06T07:45:11.947Z,21.44
2023-03-06T07:46:11.992Z,21.25
2023-03-06T07:47:11.919Z,21.14
2023-03-06T07:48:11.957Z,21.26
2023-03-06T07:49:11.864Z,21.31
2023-03-06T07:50:11.853Z,21.60
2023-03-06T07:51:11.883Z,21.50
2023-03-06T07:52:11.814Z,21.29
2023-03-06T07:53:11.842Z,21.17
2023-03-06T07:54:11.835Z,21.06
2023-03-06T07:55:11.767Z,21.13
2023-03-06T07:56:11.745Z,21.10
2023-03-06T07:57:11.711Z,21.19
2023-03-06T07:58:11.699Z,21.08
2023-03-06T07:59:11.684Z,21.05
2023-03-06T08:00:11.701Z,20.99
2023-03-06T08:01:11.653Z,20.94
2023-03-06T08:02:11.699Z,20.92
2023-03-06T08:03:11.618Z,20.94
2023-03-06T08:04:11.658Z,20.95
2023-03-06T08:05:11.542Z,21.00
2023-03-06T08:06:11.517Z,20.99
2023-03-06T08:07:11.543Z,20.99
2023-03-06T08:08:11.498Z,20.89
2023-03-06T08:09:11.478Z,20.95
2023-03-06T08:10:11.494Z,20.87
2023-03-06T08:11:11.436Z,21.11
2023-03-06T08:12:11.391Z,20.95
2023-03-06T08:13:11.392Z,20.84
2023-03-06T08:14:11.350Z,20.91
2023-03-06T08:15:11.323Z,20.84
2023-03-06T08:16:11.341Z,20.95
2023-03-06T08:17:11.317Z,20.99
2023-03-06T08:18:11.285Z,20.99
2023-03-06T08:19:11.233Z,20.99
2023-03-06T08:20:11.229Z,21.00
2023-03-06T08:21:11.191Z,20.99
2023-03-06T08:22:11.206Z,21.10
2023-03-06T08:23:11.248Z,21.12
2023-03-06T08:24:11.125Z,21.13
2023-03-06T08:25:11.097Z,21.19
2023-03-06T08:26:11.071Z,21.10
2023-03-06T08:27:11.074Z,21.15
2023-03-06T08:28:11.036Z,21.16
2023-03-06T08:29:10.996Z,21.27
2023-03-06T08:30:10.989Z,21.18
2023-03-06T08:31:10.987Z,21.24
2023-03-06T08:32:10.940Z,21.21
2023-03-06T08:33:10.930Z,21.27
2023-03-06T08:34:10.904Z,21.38
2023-03-06T08:35:10.898Z,21.35
2023-03-06T08:36:10.874Z,21.32
2023-03-06T08:37:10.887Z,21.78
2023-03-06T08:38:10.829Z,21.12
2023-03-06T08:39:10.835Z,21.59
2023-03-06T08:40:10.804Z,21.19
2023-03-06T08:41:10.768Z,21.16
2023-03-06T08:42:10.761Z,20.43
2023-03-06T08:43:13.001Z,17.81
2023-03-06T08:44:10.712Z,17.03
2023-03-06T08:45:10.708Z,17.22
2023-03-06T08:46:10.688Z,16.72
2023-03-06T08:47:10.703Z,17.29
2023-03-06T08:48:10.673Z,18.39
2023-03-06T08:49:10.680Z,18.76
2023-03-06T08:50:10.667Z,19.04
2023-03-06T08:51:10.651Z,19.32
2023-03-06T08:52:10.640Z,19.42
2023-03-06T08:53:10.684Z,19.53
2023-03-06T08:54:10.625Z,19.70
2023-03-06T08:55:10.615Z,19.86
2023-03-06T08:56:10.586Z,19.93
2023-03-06T08:57:10.679Z,20.03
2023-03-06T08:58:10.549Z,20.09
2023-03-06T08:59:10.554Z,20.11
2023-03-06T09:00:10.564Z,20.22
2023-03-06T09:01:10.645Z,20.27
2023-03-06T09:02:10.503Z,20.29
2023-03-06T09:03:10.474Z,20.30
2023-03-06T09:04:10.454Z,20.40
2023-03-06T09:05:10.419Z,20.50
2023-03-06T09:06:10.404Z,20.51
2023-03-06T09:07:10.388Z,20.54
2023-03-06T09:08:10.371Z,20.63
2023-03-06T09:09:10.522Z,20.72
2023-03-06T09:10:10.476Z,20.83
2023-03-06T09:11:10.376Z,20.82
2023-03-06T09:12:10.292Z,21.01
2023-03-06T09:13:10.304Z,21.09
2023-03-06T09:14:10.282Z,21.08
2023-03-06T09:15:10.258Z,21.12
2023-03-06T09:16:10.373Z,21.19
2023-03-06T09:17:10.232Z,21.16
2023-03-06T09:18:10.201Z,21.26
2023-03-06T09:19:10.218Z,21.11
2023-03-06T09:20:10.599Z,20.73
2023-03-06T09:21:10.176Z,20.19
2023-03-06T09:22:10.159Z,19.61
2023-03-06T09:23:10.148Z,19.34
2023-03-06T09:24:10.153Z,19.08
2023-03-06T09:25:10.114Z,19.13
2023-03-06T09:26:10.087Z,18.92
2023-03-06T09:27:10.083Z,18.60
2023-03-06T09:28:11.962Z,18.60
2023-03-06T09:29:10.052Z,18.54
2023-03-06T09:30:10.024Z,18.53
2023-03-06T09:31:10.099Z,18.74
2023-03-06T09:32:12.084Z,18.88
2023-03-06T09:33:10.009Z,18.79
2023-03-06T09:34:09.999Z,18.93
2023-03-06T09:35:10.018Z,18.75
2023-03-06T09:36:09.981Z,18.69
2023-03-06T09:37:09.964Z,18.75
2023-03-06T09:38:09.977Z,18.80
2023-03-06T09:39:09.996Z,18.61
2023-03-06T09:40:09.934Z,18.48
2023-03-06T09:41:09.937Z,18.37
2023-03-06T09:42:09.906Z,18.29
2023-03-06T09:43:09.902Z,18.42
2023-03-06T09:44:09.873Z,18.23
2023-03-06T09:45:09.862Z,18.15
2023-03-06T09:46:09.875Z,18.07
2023-03-06T09:47:09.845Z,18.07
2023-03-06T09:48:09.886Z,18.18
2023-03-06T09:49:09.809Z,18.38
2023-03-06T09:50:09.853Z,18.89
2023-03-06T09:51:09.779Z,19.13
2023-03-06T09:52:09.766Z,19.24
2023-03-06T09:53:09.785Z,19.41
2023-03-06T09:54:09.750Z,19.59
2023-03-06T09:55:09.753Z,19.64
2023-03-06T09:56:09.718Z,19.78
2023-03-06T09:57:09.722Z,19.88
2023-03-06T09:58:09.700Z,19.89
2023-03-06T09:59:09.697Z,20.02
2023-03-06T10:00:09.676Z,20.07
2023-03-06T10:01:09.646Z,20.12
2023-03-06T10:02:09.855Z,20.24
2023-03-06T10:03:09.785Z,20.37
2023-03-06T10:04:09.640Z,20.97
2023-03-06T10:05:09.714Z,20.89
2023-03-06T10:06:09.568Z,21.51
2023-03-06T10:07:09.559Z,21.41
2023-03-06T10:08:09.537Z,21.60
2023-03-06T10:09:09.530Z,21.62
2023-03-06T10:10:09.526Z,21.81
2023-03-06T10:11:09.507Z,21.81
2023-03-06T10:12:09.490Z,21.81
2023-03-06T10:13:09.457Z,21.85
2023-03-06T10:14:09.444Z,22.08
2023-03-06T10:15:09.440Z,22.19
2023-03-06T10:16:09.462Z,22.26
2023-03-06T10:17:09.397Z,22.38
2023-03-06T10:18:09.375Z,22.42
2023-03-06T10:19:09.360Z,22.55
2023-03-06T10:20:09.332Z,22.53
2023-03-06T10:21:18.646Z,22.34
2023-03-06T10:22:10.313Z,22.45
2023-03-06T10:23:11.032Z,22.50
2023-03-06T10:24:09.284Z,22.51
2023-03-06T10:25:09.259Z,22.51
2023-03-06T10:26:09.286Z,22.56
2023-03-06T10:27:09.245Z,22.56
2023-03-06T10:28:09.236Z,22.56
2023-03-06T10:29:09.272Z,22.52
2023-03-06T10:30:09.239Z,22.58
2023-03-06T10:31:09.211Z,22.47
2023-03-06T10:32:09.147Z,22.49
2023-03-06T10:33:09.119Z,22.46
2023-03-06T10:34:09.077Z,22.31
2023-03-06T10:35:09.058Z,22.32
2023-03-06T10:36:09.038Z,22.44
2023-03-06T10:37:09.006Z,22.47
2023-03-06T10:38:09.006Z,22.52
2023-03-06T10:39:09.016Z,22.09
2023-03-06T10:40:08.967Z,21.95
2023-03-06T10:41:08.909Z,21.57
2023-03-06T10:42:08.888Z,21.53
2023-03-06T10:43:11.835Z,20.89
2023-03-06T10:44:08.869Z,21.03
2023-03-06T10:45:08.841Z,21.24
2023-03-06T10:47:08.821Z,21.54
2023-03-06T10:48:08.793Z,21.47
2023-03-06T10:49:08.830Z,21.91
2023-03-06T10:50:08.731Z,21.82
2023-03-06T10:52:08.718Z,21.65
2023-03-06T11:12:08.358Z,21.52
2023-03-06T11:24:11.845Z,21.42
2023-03-06T11:25:08.049Z,21.34
2023-03-06T11:26:08.005Z,21.23
2023-03-06T11:27:07.976Z,21.16
2023-03-06T11:28:07.966Z,21.08
2023-03-06T11:29:07.975Z,20.91
2023-03-06T11:30:07.895Z,20.69
2023-03-06T11:31:07.887Z,20.56
2023-03-06T11:32:07.911Z,20.38
2023-03-06T11:33:07.831Z,20.45
2023-03-06T11:34:07.801Z,20.27
2023-03-06T11:35:07.777Z,20.30
2023-03-06T11:36:07.759Z,20.18
2023-03-06T11:37:07.734Z,20.24
2023-03-06T11:38:07.704Z,20.22
2023-03-06T11:39:07.674Z,20.15
2023-03-06T11:40:07.649Z,20.05
2023-03-06T11:41:07.614Z,20.19
2023-03-06T11:42:07.756Z,20.53
2023-03-06T11:43:07.573Z,20.78
2023-03-06T11:44:07.561Z,20.68
2023-03-06T11:45:07.547Z,20.86
2023-03-06T11:46:07.480Z,20.92
2023-03-06T11:47:07.485Z,21.08
2023-03-06T11:48:07.450Z,21.21
2023-03-06T11:49:07.415Z,21.19
2023-03-06T11:50:07.392Z,21.19
2023-03-06T11:51:07.406Z,21.26
2023-03-06T11:52:07.356Z,21.21
2023-03-06T11:53:07.321Z,21.29
2023-03-06T11:54:07.288Z,21.37
2023-03-06T11:55:07.269Z,21.34
2023-03-06T11:56:07.254Z,21.45
2023-03-06T11:57:07.228Z,21.29
2023-03-06T11:58:07.190Z,21.35
2023-03-06T11:59:07.160Z,21.41
2023-03-06T12:00:07.133Z,21.41
2023-03-06T12:01:07.113Z,21.43
2023-03-06T12:02:07.095Z,21.47
2023-03-06T12:03:07.067Z,21.49
2023-03-06T12:04:07.034Z,21.53
2023-03-06T12:05:07.073Z,21.55
2023-03-06T12:06:06.970Z,21.49
2023-03-06T12:07:07.775Z,21.52
2023-03-06T12:08:06.976Z,21.57
2023-03-06T12:09:06.898Z,21.57
2023-03-06T12:10:06.894Z,21.65
2023-03-06T12:12:06.824Z,21.59
2023-03-06T12:13:06.784Z,21.52
2023-03-06T12:14:06.772Z,21.53
2023-03-06T12:15:06.769Z,21.51
2023-03-06T12:16:06.726Z,21.48
2023-03-06T12:17:06.704Z,21.40
2023-03-06T12:18:06.653Z,21.37
2023-03-06T12:19:06.672Z,21.34
2023-03-06T12:20:06.615Z,21.29
2023-03-06T12:21:06.589Z,21.27
2023-03-06T12:22:06.563Z,21.26
2023-03-06T12:23:14.951Z,21.21
2023-03-06T12:24:07.535Z,21.16
2023-03-06T12:25:06.498Z,21.15
2023-03-06T12:26:06.483Z,21.24
2023-03-06T12:27:06.436Z,21.04
2023-03-06T12:28:06.418Z,20.99
2023-03-06T12:29:06.383Z,21.57
2023-03-06T12:30:06.362Z,21.43
2023-03-06T12:31:06.337Z,20.93
2023-03-06T12:32:06.684Z,21.01
2023-03-06T12:33:06.266Z,21.03
2023-03-06T12:34:06.253Z,20.74
2023-03-06T12:35:06.447Z,20.55
2023-03-06T12:36:06.207Z,20.27
2023-03-06T12:37:06.172Z,20.00
2023-03-06T12:38:06.148Z,19.81
2023-03-06T12:39:06.108Z,19.60
2023-03-06T12:40:06.078Z,19.41
2023-03-06T12:41:06.044Z,19.29
2023-03-06T12:42:11.290Z,19.13
2023-03-06T12:43:07.001Z,18.92
2023-03-06T12:44:05.949Z,18.92
2023-03-06T12:45:05.941Z,18.73
2023-03-06T12:46:05.891Z,18.74
2023-03-06T12:47:05.851Z,18.60
2023-03-06T12:48:05.820Z,18.57
2023-03-06T12:49:05.798Z,18.73
2023-03-06T12:50:05.758Z,18.57
2023-03-06T12:51:05.756Z,18.46
2023-03-06T12:52:05.729Z,18.49
2023-03-06T12:53:05.696Z,18.40
2023-03-06T12:54:05.661Z,18.53
2023-03-06T12:55:05.632Z,18.54
2023-03-06T12:56:05.622Z,18.49
2023-03-06T12:57:05.584Z,18.33
2023-03-06T12:58:05.553Z,18.41
2023-03-06T12:59:05.520Z,18.30
2023-03-06T13:00:05.505Z,18.26
2023-03-06T13:01:05.580Z,18.26
2023-03-06T13:02:05.535Z,18.35
2023-03-06T13:03:05.432Z,18.37
2023-03-06T13:04:05.402Z,18.34
2023-03-06T13:05:05.371Z,18.34
2023-03-06T13:06:05.358Z,18.27
2023-03-06T13:07:05.336Z,18.23
2023-03-06T13:08:05.310Z,18.15
2023-03-06T13:09:05.272Z,18.05
2023-03-06T13:10:05.247Z,18.04
2023-03-06T13:11:05.230Z,18.11
2023-03-06T13:12:05.203Z,18.18
2023-03-06T13:13:05.215Z,18.23
2023-03-06T13:14:05.155Z,18.31
2023-03-06T13:15:05.129Z,18.29
2023-03-06T13:16:05.094Z,18.32
2023-03-06T13:17:05.190Z,18.36
2023-03-06T13:18:05.056Z,18.17
2023-03-06T13:19:05.025Z,18.20
2023-03-06T13:20:04.990Z,18.23
2023-03-06T13:21:04.968Z,18.12
2023-03-06T13:22:04.924Z,18.13
2023-03-06T13:23:04.894Z,18.13
2023-03-06T13:24:04.869Z,18.15
2023-03-06T13:25:08.475Z,18.05
2023-03-06T13:26:04.862Z,18.05
2023-03-06T13:27:04.779Z,18.09
2023-03-06T13:28:04.765Z,18.07
2023-03-06T13:29:04.729Z,18.02
2023-03-06T13:30:04.701Z,17.96
2023-03-06T13:31:06.013Z,17.94
2023-03-06T13:32:04.866Z,17.89
2023-03-06T13:33:04.785Z,18.77
2023-03-06T13:34:04.783Z,18.91
2023-03-06T13:35:04.757Z,19.12
2023-03-06T13:36:04.723Z,19.55
2023-03-06T13:37:04.699Z,19.75
2023-03-06T13:38:04.662Z,19.83
2023-03-06T13:39:04.644Z,20.14
2023-03-06T13:40:04.655Z,20.18
2023-03-06T13:41:04.578Z,20.17
2023-03-06T13:42:04.585Z,20.47
2023-03-06T13:43:04.560Z,20.50
2023-03-06T13:44:04.534Z,20.60
2023-03-06T13:45:04.485Z,20.47
2023-03-06T13:46:04.528Z,20.50
2023-03-06T13:47:04.641Z,20.41
2023-03-06T13:48:30.390Z,20.44
2023-03-06T13:49:05.440Z,20.31
2023-03-06T13:50:04.365Z,20.19
2023-03-06T13:51:04.336Z,19.90
2023-03-06T13:52:04.316Z,19.81
2023-03-06T13:53:04.298Z,19.56
2023-03-06T13:54:04.290Z,18.75
2023-03-06T13:55:04.221Z,18.31
2023-03-06T13:56:04.243Z,17.66
2023-03-06T13:57:04.192Z,17.59
2023-03-06T13:58:04.171Z,17.45
2023-03-06T13:59:04.148Z,17.07
2023-03-06T14:00:09.179Z,15.66
2023-03-06T14:01:05.165Z,14.32
2023-03-06T14:02:04.092Z,14.13
2023-03-06T14:03:04.118Z,14.38
2023-03-06T14:04:04.068Z,14.64
2023-03-06T14:05:04.033Z,15.05
2023-03-06T14:06:04.006Z,15.33
2023-03-06T14:07:05.641Z,15.74
2023-03-06T14:08:04.014Z,15.44
2023-03-06T14:09:04.017Z,15.28
2023-03-06T14:10:03.982Z,15.72
2023-03-06T14:11:03.959Z,15.49
2023-03-06T14:12:03.955Z,15.60
2023-03-06T14:13:03.956Z,15.34
2023-03-06T14:14:03.940Z,15.74
2023-03-06T14:15:03.955Z,16.07
2023-03-06T14:16:04.017Z,16.02
2023-03-06T14:17:05.151Z,15.93
2023-03-06T14:18:04.024Z,15.71
2023-03-06T14:19:03.999Z,15.87
2023-03-06T14:20:04.015Z,15.50
2023-03-06T14:21:03.995Z,15.71
2023-03-06T14:22:04.045Z,15.66
2023-03-06T14:23:04.110Z,15.69
2023-03-06T14:24:04.143Z,15.66
2023-03-06T14:25:04.192Z,15.05
2023-03-06T14:26:04.232Z,14.57
2023-03-06T14:27:04.285Z,15.00
2023-03-06T14:28:13.720Z,15.31
2023-03-06T14:29:05.305Z,15.54
2023-03-06T14:30:04.347Z,15.84
2023-03-06T14:31:04.344Z,16.26
2023-03-06T14:32:04.301Z,16.67
2023-03-06T14:33:04.290Z,16.99
2023-03-06T14:34:04.297Z,16.71
2023-03-06T14:35:04.292Z,17.16
2023-03-06T14:36:04.280Z,17.54
2023-03-06T14:37:04.271Z,17.72
2023-03-06T14:38:04.266Z,17.77
2023-03-06T14:39:04.331Z,18.08
2023-03-06T14:40:04.276Z,17.99
2023-03-06T14:41:04.253Z,17.55
2023-03-06T14:42:04.249Z,17.76
2023-03-06T14:43:04.219Z,16.97
2023-03-06T14:44:04.210Z,17.10
2023-03-06T14:45:04.397Z,16.53
2023-03-06T14:46:04.270Z,16.20
2023-03-06T14:47:04.158Z,16.30
2023-03-06T14:48:04.155Z,15.74
2023-03-06T14:49:04.281Z,15.60
2023-03-06T14:50:04.136Z,16.35
2023-03-06T14:51:04.129Z,16.62
2023-03-06T14:52:04.135Z,16.78
2023-03-06T14:53:04.099Z,17.23
2023-03-06T14:54:04.119Z,17.05
2023-03-06T14:55:04.102Z,17.22
2023-03-06T14:56:05.943Z,17.57
2023-03-06T14:57:04.077Z,17.61
2023-03-06T14:58:04.070Z,17.48
2023-03-06T14:59:04.074Z,17.62
2023-03-06T15:00:04.107Z,17.61
2023-03-06T15:01:04.077Z,17.53
2023-03-06T15:02:04.083Z,16.96
2023-03-06T15:03:04.109Z,17.11
2023-03-06T15:04:04.046Z,17.34
2023-03-06T15:05:04.046Z,17.01
2023-03-06T15:06:04.050Z,17.42
2023-03-06T15:07:04.084Z,17.83
2023-03-06T15:08:04.050Z,17.91
2023-03-06T15:09:06.543Z,18.12
2023-03-06T15:10:04.023Z,18.25
2023-03-06T15:11:04.013Z,18.32
2023-03-06T15:12:04.007Z,18.55
2023-03-06T15:13:03.987Z,18.71
2023-03-06T15:14:03.973Z,18.81
2023-03-06T15:15:03.964Z,18.96
2023-03-06T15:16:04.030Z,19.07
2023-03-06T15:17:03.942Z,19.23
2023-03-06T15:18:03.925Z,19.25
2023-03-06T15:19:03.939Z,19.01
2023-03-06T15:20:03.923Z,19.31
2023-03-06T15:21:03.904Z,19.49
2023-03-06T15:22:03.865Z,19.38
2023-03-06T15:23:03.862Z,19.46
2023-03-06T15:24:03.841Z,19.35
2023-03-06T15:25:03.838Z,19.18
2023-03-06T15:26:03.824Z,19.18
2023-03-06T15:27:03.800Z,19.10
2023-03-06T15:28:03.805Z,19.01
2023-03-06T15:29:09.266Z,18.88
2023-03-06T15:30:04.763Z,18.77
2023-03-06T15:31:03.754Z,18.74
2023-03-06T15:32:03.755Z,18.63
2023-03-06T15:33:03.718Z,18.57
2023-03-06T15:34:03.684Z,18.50
2023-03-06T15:35:03.683Z,18.43
2023-03-06T15:36:03.665Z,18.41
2023-03-06T15:37:03.624Z,18.32
2023-03-06T15:38:03.617Z,18.37
2023-03-06T15:39:03.588Z,18.35
2023-03-06T15:40:03.598Z,18.24
2023-03-06T15:41:03.563Z,18.21
2023-03-06T15:42:05.093Z,18.19
2023-03-06T15:43:03.509Z,18.14
2023-03-06T15:44:03.506Z,18.08
2023-03-06T15:45:03.466Z,18.03
2023-03-06T15:46:03.493Z,17.97
2023-03-06T15:47:08.731Z,17.92
2023-03-06T15:48:04.430Z,17.93
2023-03-06T15:49:03.434Z,17.89
2023-03-06T15:50:03.376Z,17.93
2023-03-06T15:51:03.409Z,17.83
2023-03-06T15:52:03.338Z,17.81
2023-03-06T15:53:03.307Z,17.93
2023-03-06T15:54:11.852Z,17.91
2023-03-06T15:55:04.266Z,17.89
2023-03-06T15:56:03.259Z,17.89
2023-03-06T15:57:03.244Z,17.86
2023-03-06T15:58:03.212Z,17.90
2023-03-06T15:59:03.192Z,17.97
2023-03-06T16:00:03.197Z,17.94
2023-03-06T16:01:03.196Z,17.93
2023-03-06T16:02:03.157Z,18.02
2023-03-06T16:03:03.131Z,17.99
2023-03-06T16:04:03.166Z,18.02
2023-03-06T16:05:03.139Z,18.04
2023-03-06T16:06:03.078Z,18.07
2023-03-06T16:07:03.061Z,18.07
2023-03-06T16:08:03.036Z,18.10
2023-03-06T16:09:03.029Z,18.12
2023-03-06T16:10:03.007Z,18.13
2023-03-06T16:11:03.001Z,18.12
2023-03-06T16:12:02.982Z,18.15
2023-03-06T16:13:03.005Z,18.15
2023-03-06T16:14:02.952Z,18.17
2023-03-06T16:15:02.930Z,18.20
2023-03-06T16:16:02.901Z,18.26
2023-03-06T16:17:02.888Z,18.28
2023-03-06T16:18:02.867Z,18.20
2023-03-06T16:19:02.835Z,18.26
2023-03-06T16:20:02.815Z,18.29
2023-03-06T16:21:02.805Z,18.29
2023-03-06T16:22:02.780Z,18.32
2023-03-06T16:23:02.782Z,18.37
2023-03-06T16:24:02.761Z,18.37
2023-03-06T16:25:02.719Z,18.34
2023-03-06T16:26:02.721Z,18.42
2023-03-06T16:27:02.701Z,18.37
2023-03-06T16:28:02.659Z,18.42
2023-03-06T16:29:02.659Z,18.37
2023-03-06T16:30:02.647Z,18.45
2023-03-06T16:31:02.734Z,18.50
2023-03-06T16:32:02.730Z,18.43
2023-03-06T16:33:02.554Z,18.45
2023-03-06T16:34:02.533Z,18.51
2023-03-06T16:35:02.519Z,18.51
2023-03-06T16:36:02.502Z,18.50
2023-03-06T16:37:02.500Z,18.54
2023-03-06T16:38:02.475Z,18.54
2023-03-06T16:39:02.439Z,18.59
2023-03-06T16:40:02.436Z,18.55
2023-03-06T16:41:02.405Z,18.64
2023-03-06T16:42:02.408Z,18.64
2023-03-06T16:43:02.359Z,18.62
2023-03-06T16:44:02.345Z,18.66
2023-03-06T16:45:02.336Z,18.69
2023-03-06T16:46:02.315Z,18.66
2023-03-06T16:47:02.305Z,18.70
2023-03-06T16:48:02.281Z,18.72
2023-03-06T16:49:02.242Z,18.72
2023-03-06T16:50:02.373Z,18.75
2023-03-06T16:51:02.222Z,18.73
2023-03-06T16:52:02.212Z,18.80
2023-03-06T16:53:02.177Z,18.78
2023-03-06T16:54:02.170Z,18.78